Cleveland, Ohio
Traffic Map
Current Weather Conditions
Cleveland, Ohio
Clear
Clear
-7°
Feels Like: -13°
Wind Chill: -13° Ceiling: Unl
Heat Index: -7° Visibility: 10mi
Dew Point: -17° Wind: 9mph
Humidity: 46% Direction: 140° (SE)
Pressure: 30.33in Gusts: 0mph
Raw Report DataKBKL 142253Z AUTO 14008KT 10SM CLR M07/M17 A3033 RMK AO2 SLP280 T10721172
Traffic Incident Summary
Active as of:
Severity:
Category:
InformationThere was an issue retrieving the traffic information for this location. Please try a different location or try again shortly.
Advertisements
Track Severe Weather on mobile